sensor_id;sensor_type;location;lat;lon;timestamp;pressure;altitude;pressure_sealevel;temperature;humidity
11001;BME280;5553;48.506;8.870;2023-08-21T00:01:59;97429.94;;;20.71;100.00
11001;BME280;5553;48.506;8.870;2023-08-21T00:04:28;97426.09;;;20.67;100.00
11001;BME280;5553;48.506;8.870;2023-08-21T00:06:56;97430.28;;;20.63;100.00
11001;BME280;5553;48.506;8.870;2023-08-21T00:09:27;97434.38;;;20.65;100.00
11001;BME280;5553;48.506;8.870;2023-08-21T00:11:58;97429.00;;;20.65;100.00
11001;BME280;5553;48.506;8.870;2023-08-21T00:14:27;97424.59;;;20.59;100.00
11001;BME280;5553;48.506;8.870;2023-08-21T00:16:58;97430.41;;;20.56;100.00
11001;BME280;5553;48.506;8.870;2023-08-21T00:19:28;97437.28;;;20.52;100.00
11001;BME280;5553;48.506;8.870;2023-08-21T00:21:56;97423.53;;;20.60;100.00
11001;BME280;5553;48.506;8.870;2023-08-21T00:24:25;97425.94;;;20.50;100.00
11001;BME280;5553;48.506;8.870;2023-08-21T00:27:05;97433.97;;;20.50;100.00
11001;BME280;5553;48.506;8.870;2023-08-21T00:29:35;97431.13;;;20.51;100.00
11001;BME280;5553;48.506;8.870;2023-08-21T00:32:05;97425.84;;;20.45;100.00
11001;BME280;5553;48.506;8.870;2023-08-21T00:34:39;97428.38;;;20.40;100.00
11001;BME280;5553;48.506;8.870;2023-08-21T00:37:29;97426.84;;;20.44;100.00
11001;BME280;5553;48.506;8.870;2023-08-21T00:40:04;97422.56;;;20.43;100.00
11001;BME280;5553;48.506;8.870;2023-08-21T00:42:42;97432.44;;;20.30;100.00
11001;BME280;5553;48.506;8.870;2023-08-21T00:45:17;97425.91;;;20.26;100.00
11001;BME280;5553;48.506;8.870;2023-08-21T00:47:49;97429.03;;;20.23;100.00
11001;BME280;5553;48.506;8.870;2023-08-21T00:50:19;97432.19;;;20.20;100.00
11001;BME280;5553;48.506;8.870;2023-08-21T00:52:50;97442.44;;;20.23;100.00
11001;BME280;5553;48.506;8.870;2023-08-21T00:57:32;97442.09;;;20.20;100.00
11001;BME280;5553;48.506;8.870;2023-08-21T00:58:16;97444.41;;;20.16;100.00
11001;BME280;5553;48.506;8.870;2023-08-21T01:00:58;97444.66;;;20.15;100.00
11001;BME280;5553;48.506;8.870;2023-08-21T01:03:35;97448.59;;;20.12;100.00
11001;BME280;5553;48.506;8.870;2023-08-21T01:06:09;97447.78;;;20.11;100.00
11001;BME280;5553;48.506;8.870;2023-08-21T01:08:49;97446.72;;;20.12;100.00
11001;BME280;5553;48.506;8.870;2023-08-21T01:11:33;97447.53;;;20.13;100.00
11001;BME280;5553;48.506;8.870;2023-08-21T01:14:16;97452.63;;;20.03;100.00
11001;BME280;5553;48.506;8.870;2023-08-21T01:16:55;97447.44;;;20.08;100.00
11001;BME280;5553;48.506;8.870;2023-08-21T01:19:31;97451.84;;;20.02;100.00
11001;BME280;5553;48.506;8.870;2023-08-21T01:22:01;97460.56;;;19.98;100.00
11001;BME280;5553;48.506;8.870;2023-08-21T01:24:38;97462.72;;;19.89;100.00
11001;BME280;5553;48.506;8.870;2023-08-21T01:27:07;97476.81;;;19.84;100.00
11001;BME280;5553;48.506;8.870;2023-08-21T01:29:39;97476.00;;;19.84;100.00
11001;BME280;5553;48.506;8.870;2023-08-21T01:32:23;97506.72;;;19.81;100.00
11001;BME280;5553;48.506;8.870;2023-08-21T01:34:55;97471.44;;;19.84;100.00
11001;BME280;5553;48.506;8.870;2023-08-21T01:37:29;97461.34;;;19.86;100.00
11001;BME280;5553;48.506;8.870;2023-08-21T01:40:00;97460.75;;;19.84;100.00
11001;BME280;5553;48.506;8.870;2023-08-21T01:42:29;97467.00;;;19.78;100.00
11001;BME280;5553;48.506;8.870;2023-08-21T01:44:59;97455.03;;;19.81;100.00
11001;BME280;5553;48.506;8.870;2023-08-21T01:47:31;97465.28;;;19.84;100.00
11001;BME280;5553;48.506;8.870;2023-08-21T01:50:17;97463.59;;;19.71;100.00
11001;BME280;5553;48.506;8.870;2023-08-21T01:53:09;97477.78;;;19.72;100.00
11001;BME280;5553;48.506;8.870;2023-08-21T01:55:44;97472.69;;;19.70;100.00
11001;BME280;5553;48.506;8.870;2023-08-21T01:58:13;97478.13;;;19.63;100.00
11001;BME280;5553;48.506;8.870;2023-08-21T02:00:48;97482.03;;;19.61;100.00
11001;BME280;5553;48.506;8.870;2023-08-21T02:03:21;97473.94;;;19.49;100.00
11001;BME280;5553;48.506;8.870;2023-08-21T02:05:49;97480.94;;;19.50;100.00
11001;BME280;5553;48.506;8.870;2023-08-21T02:08:20;97480.31;;;19.48;100.00
11001;BME280;5553;48.506;8.870;2023-08-21T02:10:58;97479.31;;;19.49;100.00
11001;BME280;5553;48.506;8.870;2023-08-21T02:13:33;97476.53;;;19.56;100.00
11001;BME280;5553;48.506;8.870;2023-08-21T02:16:09;97481.53;;;19.52;100.00
11001;BME280;5553;48.506;8.870;2023-08-21T02:18:41;97489.78;;;19.51;100.00
11001;BME280;5553;48.506;8.870;2023-08-21T02:21:17;97490.38;;;19.53;100.00
11001;BME280;5553;48.506;8.870;2023-08-21T02:23:48;97506.88;;;19.50;100.00
11001;BME280;5553;48.506;8.870;2023-08-21T02:26:21;97500.53;;;19.44;100.00
11001;BME280;5553;48.506;8.870;2023-08-21T02:28:50;97520.53;;;19.41;100.00
11001;BME280;5553;48.506;8.870;2023-08-21T02:31:18;97501.00;;;19.41;100.00
11001;BME280;5553;48.506;8.870;2023-08-21T02:33:55;97505.75;;;19.39;100.00
11001;BME280;5553;48.506;8.870;2023-08-21T02:36:35;97499.88;;;19.30;100.00
11001;BME280;5553;48.506;8.870;2023-08-21T02:39:11;97503.38;;;19.31;100.00
11001;BME280;5553;48.506;8.870;2023-08-21T02:41:47;97500.94;;;19.29;100.00
11001;BME280;5553;48.506;8.870;2023-08-21T02:47:46;97513.06;;;19.32;100.00
11001;BME280;5553;48.506;8.870;2023-08-21T02:50:28;97514.31;;;19.29;100.00
11001;BME280;5553;48.506;8.870;2023-08-21T02:53:28;97507.16;;;19.23;100.00
11001;BME280;5553;48.506;8.870;2023-08-21T02:56:20;97510.44;;;19.25;100.00
11001;BME280;5553;48.506;8.870;2023-08-21T03:00:10;97519.34;;;19.19;100.00
11001;BME280;5553;48.506;8.870;2023-08-21T03:01:47;97517.25;;;19.21;100.00
11001;BME280;5553;48.506;8.870;2023-08-21T03:04:29;97515.31;;;19.10;100.00
11001;BME280;5553;48.506;8.870;2023-08-21T03:07:10;97516.06;;;18.99;100.00
11001;BME280;5553;48.506;8.870;2023-08-21T03:09:57;97514.94;;;18.88;100.00
11001;BME280;5553;48.506;8.870;2023-08-21T03:12:32;97517.47;;;18.76;100.00
11001;BME280;5553;48.506;8.870;2023-08-21T03:15:06;97519.97;;;18.78;100.00
11001;BME280;5553;48.506;8.870;2023-08-21T03:17:39;97524.88;;;18.81;100.00
11001;BME280;5553;48.506;8.870;2023-08-21T03:20:17;97523.59;;;18.83;100.00
11001;BME280;5553;48.506;8.870;2023-08-21T03:22:48;97516.63;;;18.82;100.00
11001;BME280;5553;48.506;8.870;2023-08-21T03:25:27;97526.88;;;18.85;100.00
11001;BME280;5553;48.506;8.870;2023-08-21T03:28:08;97520.28;;;18.88;100.00
11001;BME280;5553;48.506;8.870;2023-08-21T03:30:56;97528.28;;;18.88;100.00
11001;BME280;5553;48.506;8.870;2023-08-21T03:33:25;97527.47;;;18.87;100.00
11001;BME280;5553;48.506;8.870;2023-08-21T03:38:59;97528.50;;;18.86;100.00
11001;BME280;5553;48.506;8.870;2023-08-21T03:41:33;97529.97;;;18.82;100.00
11001;BME280;5553;48.506;8.870;2023-08-21T03:44:24;97561.00;;;18.83;100.00
11001;BME280;5553;48.506;8.870;2023-08-21T03:47:13;97551.16;;;18.84;100.00
11001;BME280;5553;48.506;8.870;2023-08-21T05:27:15;97577.38;;;19.80;100.00
11001;BME280;5553;48.506;8.870;2023-08-21T05:34:39;97622.88;;;19.80;100.00
11001;BME280;5553;48.506;8.870;2023-08-21T05:37:07;97632.06;;;20.03;100.00
11001;BME280;5553;48.506;8.870;2023-08-21T05:39:36;97624.88;;;20.03;100.00
11001;BME280;5553;48.506;8.870;2023-08-21T05:42:04;97623.34;;;20.26;100.00
11001;BME280;5553;48.506;8.870;2023-08-21T05:44:35;97595.72;;;20.86;100.00
11001;BME280;5553;48.506;8.870;2023-08-21T05:51:58;97557.94;;;21.22;100.00
11001;BME280;5553;48.506;8.870;2023-08-21T09:31:05;97541.41;;;35.82;48.97
11001;BME280;5553;48.506;8.870;2023-08-21T10:32:28;97471.03;;;37.16;45.02
11001;BME280;5553;48.506;8.870;2023-08-21T12:18:22;97409.00;;;37.80;42.32
11001;BME280;5553;48.506;8.870;2023-08-21T16:05:23;97178.72;;;31.41;56.67
11001;BME280;5553;48.506;8.870;2023-08-21T16:07:52;97189.56;;;31.54;57.49
11001;BME280;5553;48.506;8.870;2023-08-21T16:10:21;97179.69;;;31.22;57.39
11001;BME280;5553;48.506;8.870;2023-08-21T16:12:49;97182.66;;;31.12;56.89
11001;BME280;5553;48.506;8.870;2023-08-21T16:15:17;97181.16;;;31.42;55.63
11001;BME280;5553;48.506;8.870;2023-08-21T16:17:47;97168.09;;;31.16;58.09
11001;BME280;5553;48.506;8.870;2023-08-21T16:20:16;97167.22;;;31.07;58.03
11001;BME280;5553;48.506;8.870;2023-08-21T16:22:47;97173.66;;;30.89;57.11
11001;BME280;5553;48.506;8.870;2023-08-21T16:25:16;97164.78;;;30.83;57.73
11001;BME280;5553;48.506;8.870;2023-08-21T16:27:44;97169.41;;;30.69;58.79
11001;BME280;5553;48.506;8.870;2023-08-21T16:30:13;97168.63;;;30.68;59.89
11001;BME280;5553;48.506;8.870;2023-08-21T16:32:43;97170.44;;;30.59;59.81
11001;BME280;5553;48.506;8.870;2023-08-21T16:35:11;97169.56;;;30.50;60.20
11001;BME280;5553;48.506;8.870;2023-08-21T16:37:41;97165.63;;;30.42;60.58
11001;BME280;5553;48.506;8.870;2023-08-21T16:40:13;97175.63;;;30.19;61.67
11001;BME280;5553;48.506;8.870;2023-08-21T16:42:41;97166.09;;;29.89;62.33
11001;BME280;5553;48.506;8.870;2023-08-21T16:45:11;97163.56;;;29.79;63.60
11001;BME280;5553;48.506;8.870;2023-08-21T16:47:41;97175.03;;;29.76;64.36
11001;BME280;5553;48.506;8.870;2023-08-21T16:50:10;97166.56;;;29.78;64.95
11001;BME280;5553;48.506;8.870;2023-08-21T16:52:39;97169.09;;;29.88;65.46
11001;BME280;5553;48.506;8.870;2023-08-21T16:55:09;97171.41;;;29.81;64.84
11001;BME280;5553;48.506;8.870;2023-08-21T16:57:41;97165.94;;;29.67;64.64
11001;BME280;5553;48.506;8.870;2023-08-21T17:00:10;97166.25;;;29.65;65.17
11001;BME280;5553;48.506;8.870;2023-08-21T17:02:40;97168.28;;;29.73;65.66
11001;BME280;5553;48.506;8.870;2023-08-21T17:05:09;97162.44;;;29.66;66.42
11001;BME280;5553;48.506;8.870;2023-08-21T17:07:39;97171.19;;;29.63;65.52
11001;BME280;5553;48.506;8.870;2023-08-21T17:10:10;97168.72;;;29.48;66.66
11001;BME280;5553;48.506;8.870;2023-08-21T17:12:42;97164.84;;;29.35;67.09
11001;BME280;5553;48.506;8.870;2023-08-21T17:15:12;97161.06;;;29.17;68.59
11001;BME280;5553;48.506;8.870;2023-08-21T17:17:41;97165.38;;;29.18;69.75
11001;BME280;5553;48.506;8.870;2023-08-21T17:22:41;97162.38;;;29.20;69.35
11001;BME280;5553;48.506;8.870;2023-08-21T19:11:59;97205.72;;;25.52;100.00
11001;BME280;5553;48.506;8.870;2023-08-21T19:14:28;97204.38;;;25.44;100.00
11001;BME280;5553;48.506;8.870;2023-08-21T19:17:04;97207.34;;;25.27;100.00
11001;BME280;5553;48.506;8.870;2023-08-21T19:22:01;97217.31;;;25.27;100.00
11001;BME280;5553;48.506;8.870;2023-08-21T19:24:32;97217.31;;;25.17;100.00
11001;BME280;5553;48.506;8.870;2023-08-21T19:27:06;97216.22;;;25.18;100.00
11001;BME280;5553;48.506;8.870;2023-08-21T19:29:35;97219.69;;;25.08;100.00
11001;BME280;5553;48.506;8.870;2023-08-21T19:32:04;97216.97;;;24.93;100.00
11001;BME280;5553;48.506;8.870;2023-08-21T19:34:33;97214.25;;;24.88;100.00
11001;BME280;5553;48.506;8.870;2023-08-21T19:37:03;97208.53;;;24.74;100.00
11001;BME280;5553;48.506;8.870;2023-08-21T19:42:05;97218.25;;;24.70;100.00
11001;BME280;5553;48.506;8.870;2023-08-21T19:44:39;97218.50;;;24.63;100.00
11001;BME280;5553;48.506;8.870;2023-08-21T19:47:07;97216.88;;;24.62;100.00
11001;BME280;5553;48.506;8.870;2023-08-21T19:52:15;97220.91;;;24.59;100.00
11001;BME280;5553;48.506;8.870;2023-08-21T19:54:44;97217.13;;;24.55;100.00
11001;BME280;5553;48.506;8.870;2023-08-21T19:57:16;97224.66;;;24.53;100.00
11001;BME280;5553;48.506;8.870;2023-08-21T20:02:19;97231.38;;;24.46;100.00
11001;BME280;5553;48.506;8.870;2023-08-21T20:04:57;97218.88;;;24.34;100.00
11001;BME280;5553;48.506;8.870;2023-08-21T20:07:31;97223.72;;;24.32;100.00
11001;BME280;5553;48.506;8.870;2023-08-21T20:12:41;97224.19;;;24.19;100.00
